METAR Data
IDs: Format: Raw Decoded Include TAF

Data at: 2143 UTC 01 Dec 2021

KBFF 012053Z AUTO 26016KT 10SM CLR 19/M02 A2999 RMK AO2 SLP145 T01941022 56019